createdAt,value
2023-06-11T00:00:10.872Z,100064.56
2023-06-11T00:01:15.656Z,100057.94
2023-06-11T00:02:23.075Z,100066.19
2023-06-11T00:03:26.585Z,100064.13
2023-06-11T00:04:35.852Z,100058.94
2023-06-11T00:05:39.032Z,100068.69
2023-06-11T00:06:42.736Z,100066.25
2023-06-11T00:07:45.716Z,100063.94
2023-06-11T00:08:53.282Z,100064.13
2023-06-11T00:09:56.330Z,100062.50
2023-06-11T00:10:59.307Z,100065.00
2023-06-11T00:12:02.324Z,100065.81
2023-06-11T00:13:05.378Z,100066.63
2023-06-11T00:14:11.237Z,100061.66
2023-06-11T00:15:14.236Z,100067.41
2023-06-11T00:16:17.996Z,100069.47
2023-06-11T00:17:21.013Z,100073.19
2023-06-11T00:18:24.326Z,100071.59
2023-06-11T00:19:30.375Z,100068.69
2023-06-11T00:20:34.110Z,100071.59
2023-06-11T00:21:37.884Z,100068.28
2023-06-11T00:22:42.394Z,100077.13
2023-06-11T00:23:45.452Z,100073.03
2023-06-11T00:24:48.488Z,100077.78
2023-06-11T00:25:53.731Z,100080.25
2023-06-11T00:26:56.770Z,100071.41
2023-06-11T00:28:00.143Z,100078.19
2023-06-11T00:29:03.150Z,100073.47
2023-06-11T00:30:07.561Z,100072.47
2023-06-11T00:31:10.983Z,100075.31
2023-06-11T00:32:14.000Z,100075.31
2023-06-11T00:33:16.982Z,100070.41
2023-06-11T00:34:20.007Z,100073.78
2023-06-11T00:35:23.044Z,100068.59
2023-06-11T00:36:28.082Z,100073.97
2023-06-11T00:37:33.547Z,100065.13
2023-06-11T00:38:36.912Z,100076.03
2023-06-11T00:39:39.902Z,100069.63
2023-06-11T00:40:43.056Z,100073.41
2023-06-11T00:41:50.305Z,100075.09
2023-06-11T00:42:53.287Z,100068.88
2023-06-11T00:43:56.708Z,100072.53
2023-06-11T00:45:02.532Z,100074.78
2023-06-11T00:46:11.841Z,100070.94
2023-06-11T00:47:17.933Z,100066.63
2023-06-11T00:48:22.190Z,100070.94
2023-06-11T00:49:25.773Z,100071.75
2023-06-11T00:50:36.187Z,100075.41
2023-06-11T00:51:43.263Z,100075.41
2023-06-11T00:52:47.443Z,100075.84
2023-06-11T00:53:52.354Z,100070.72
2023-06-11T00:54:58.632Z,100068.44
2023-06-11T00:56:03.021Z,100066.56
2023-06-11T00:57:08.205Z,100066.38
2023-06-11T00:58:14.879Z,100070.88
2023-06-11T00:59:18.885Z,100067.22
2023-06-11T01:00:21.908Z,100069.88
2023-06-11T01:01:31.642Z,100072.13
2023-06-11T01:02:51.952Z,100069.03
2023-06-11T01:03:58.798Z,100072.13
2023-06-11T01:05:06.700Z,100071.31
2023-06-11T01:06:18.468Z,100069.44
2023-06-11T01:07:23.940Z,100076.47
2023-06-11T01:08:28.142Z,100072.56
2023-06-11T01:09:31.165Z,100069.69
2023-06-11T01:10:34.961Z,100068.47
2023-06-11T01:11:40.113Z,100076.28
2023-06-11T01:12:43.117Z,100068.69
2023-06-11T01:13:46.890Z,100066.81
2023-06-11T01:14:50.129Z,100075.84
2023-06-11T01:16:03.411Z,100069.69
2023-06-11T01:17:42.162Z,100069.44
2023-06-11T01:19:04.684Z,100067.06
2023-06-11T01:20:18.167Z,100072.22
2023-06-11T01:21:30.587Z,100070.13
2023-06-11T01:23:18.936Z,100069.72
2023-06-11T01:25:02.555Z,100071.41
2023-06-11T01:26:41.741Z,100066.47
2023-06-11T01:28:09.273Z,100068.50
2023-06-11T01:29:16.417Z,100071.78
2023-06-11T01:30:22.212Z,100068.88
2023-06-11T01:31:30.917Z,100071.78
2023-06-11T01:32:34.089Z,100068.31
2023-06-11T01:33:37.457Z,100071.19
2023-06-11T01:34:43.681Z,100072.00
2023-06-11T01:35:50.053Z,100073.00
2023-06-11T01:36:53.273Z,100072.63
2023-06-11T01:37:56.870Z,100077.16
2023-06-11T01:39:00.003Z,100071.81
2023-06-11T01:40:03.752Z,100080.84
2023-06-11T01:41:06.741Z,100077.53
2023-06-11T01:42:09.797Z,100075.66
2023-06-11T01:43:12.805Z,100076.72
2023-06-11T01:44:15.961Z,100080.44
2023-06-11T01:45:19.880Z,100084.50
2023-06-11T01:46:23.396Z,100082.50
2023-06-11T01:47:26.588Z,100076.88
2023-06-11T01:48:29.585Z,100071.75
2023-06-11T01:49:32.572Z,100073.00
2023-06-11T01:50:35.762Z,100083.69
2023-06-11T01:51:38.880Z,100081.63
2023-06-11T01:52:42.417Z,100082.88
2023-06-11T01:53:45.658Z,100081.25
2023-06-11T01:54:48.656Z,100084.09
2023-06-11T01:55:52.080Z,100084.91
2023-06-11T01:56:55.069Z,100091.94
2023-06-11T01:57:58.095Z,100082.88
2023-06-11T01:59:01.308Z,100080.00
2023-06-11T02:00:11.669Z,100090.25
2023-06-11T02:01:14.884Z,100085.50
2023-06-11T02:02:17.941Z,100082.81
2023-06-11T02:03:21.212Z,100090.47
2023-06-11T02:04:24.340Z,100088.41
2023-06-11T02:05:27.331Z,100093.53
2023-06-11T02:06:31.132Z,100089.09
2023-06-11T02:07:34.331Z,100092.75
2023-06-11T02:08:37.339Z,100086.19
2023-06-11T02:09:40.332Z,100084.56
2023-06-11T02:10:46.021Z,100084.56
2023-06-11T02:11:49.041Z,100081.69
2023-06-11T02:12:52.038Z,100090.28
2023-06-11T02:13:55.051Z,100093.19
2023-06-11T02:14:58.123Z,100094.81
2023-06-11T02:16:01.177Z,100090.16
2023-06-11T02:17:04.425Z,100085.38
2023-06-11T02:18:07.447Z,100093.63
2023-06-11T02:19:10.527Z,100088.28
2023-06-11T02:20:15.314Z,100090.72
2023-06-11T02:21:18.291Z,100088.72
2023-06-11T02:22:21.329Z,100089.53
2023-06-11T02:23:24.350Z,100092.41
2023-06-11T02:24:27.464Z,100088.09
2023-06-11T02:25:30.786Z,100086.06
2023-06-11T02:26:33.758Z,100086.28
2023-06-11T02:27:36.859Z,100094.25
2023-06-11T02:28:39.845Z,100087.88
2023-06-11T02:29:42.850Z,100085.84
2023-06-11T02:30:45.859Z,100087.06
2023-06-11T02:31:48.913Z,100084.81
2023-06-11T02:32:52.034Z,100087.47
2023-06-11T02:33:55.092Z,100086.66
2023-06-11T02:34:58.081Z,100088.53
2023-06-11T02:36:01.232Z,100086.66
2023-06-11T02:37:04.254Z,100090.16
2023-06-11T02:38:07.248Z,100088.28
2023-06-11T02:39:10.235Z,100089.97
2023-06-11T02:40:13.592Z,100090.16
2023-06-11T02:41:16.906Z,100096.13
2023-06-11T02:42:19.905Z,100092.00
2023-06-11T02:43:22.903Z,100092.06
2023-06-11T02:44:25.984Z,100094.13
2023-06-11T02:45:28.963Z,100091.63
2023-06-11T02:46:32.029Z,100091.63
2023-06-11T02:47:35.051Z,100088.72
2023-06-11T02:48:38.060Z,100091.63
2023-06-11T02:49:41.084Z,100088.34
2023-06-11T02:50:44.069Z,100086.31
2023-06-11T02:51:47.054Z,100090.59
2023-06-11T02:52:50.084Z,100087.09
2023-06-11T02:53:53.082Z,100091.63
2023-06-11T02:54:56.145Z,100085.25
2023-06-11T02:55:59.132Z,100091.03
2023-06-11T02:57:02.112Z,100093.88
2023-06-11T02:58:05.117Z,100092.66
2023-06-11T02:59:08.108Z,100086.28
2023-06-11T03:00:12.061Z,100091.19
2023-06-11T03:01:15.123Z,100093.88
2023-06-11T03:02:18.293Z,100093.06
2023-06-11T03:03:21.367Z,100092.88
2023-06-11T03:04:24.423Z,100091.63
2023-06-11T03:05:27.434Z,100093.47
2023-06-11T03:06:30.494Z,100096.19
2023-06-11T03:07:33.522Z,100095.97
2023-06-11T03:08:36.510Z,100088.13
2023-06-11T03:09:39.504Z,100101.53
2023-06-11T03:10:42.517Z,100095.13
2023-06-11T03:11:45.988Z,100097.41
2023-06-11T03:12:48.977Z,100094.75
2023-06-11T03:13:51.968Z,100094.13
2023-06-11T03:14:54.959Z,100091.88
2023-06-11T03:15:58.001Z,100094.97
2023-06-11T03:17:01.082Z,100097.00
2023-06-11T03:18:04.751Z,100092.88
2023-06-11T03:19:07.833Z,100099.47
2023-06-11T03:20:11.620Z,100098.22
2023-06-11T03:21:15.017Z,100092.31
2023-06-11T03:22:18.045Z,100100.47
2023-06-11T03:23:21.029Z,100096.63
2023-06-11T03:24:24.150Z,100097.81
2023-06-11T03:25:27.192Z,100098.00
2023-06-11T03:26:30.181Z,100096.63
2023-06-11T03:27:33.298Z,100102.75
2023-06-11T03:28:36.283Z,100100.47
2023-06-11T03:29:39.266Z,100101.09
2023-06-11T03:30:42.257Z,100098.22
2023-06-11T03:31:45.407Z,100103.53
2023-06-11T03:32:48.465Z,100106.19
2023-06-11T03:33:51.515Z,100111.78
2023-06-11T03:34:54.553Z,100110.94
2023-06-11T03:35:57.588Z,100110.09
2023-06-11T03:37:00.623Z,100107.59
2023-06-11T03:38:03.618Z,100106.59
2023-06-11T03:39:06.596Z,100107.59
2023-06-11T03:40:10.258Z,100103.47
2023-06-11T03:41:13.276Z,100104.31
2023-06-11T03:42:16.397Z,100116.66
2023-06-11T03:43:19.402Z,100110.66
2023-06-11T03:44:22.413Z,100107.59
2023-06-11T03:45:25.471Z,100105.09
2023-06-11T03:46:28.461Z,100105.75
2023-06-11T03:47:31.655Z,100101.66
2023-06-11T03:48:34.695Z,100107.19
2023-06-11T03:49:37.705Z,100110.44
2023-06-11T03:50:40.881Z,100106.34
2023-06-11T03:51:43.898Z,100115.78
2023-06-11T03:52:46.937Z,100105.09
2023-06-11T03:53:49.941Z,100105.88
2023-06-11T03:54:52.972Z,100116.19
2023-06-11T03:55:55.977Z,100115.94
2023-06-11T03:56:59.537Z,100116.34
2023-06-11T03:58:02.715Z,100114.09
2023-06-11T03:59:05.703Z,100124.34
2023-06-11T04:00:09.698Z,100116.97
2023-06-11T04:01:12.843Z,100113.84
2023-06-11T04:02:15.985Z,100113.66
2023-06-11T04:03:19.037Z,100115.28
2023-06-11T04:04:22.161Z,100111.59
2023-06-11T04:05:25.209Z,100117.53
2023-06-11T04:06:29.020Z,100113.66
2023-06-11T04:07:32.021Z,100119.38
2023-06-11T04:08:35.040Z,100110.72
2023-06-11T04:09:38.020Z,100111.91
2023-06-11T04:10:41.057Z,100123.44
2023-06-11T04:11:44.106Z,100112.56
2023-06-11T04:12:47.940Z,100118.28
2023-06-11T04:13:51.406Z,100119.72
2023-06-11T04:14:54.485Z,100110.66
2023-06-11T04:15:57.509Z,100116.03
2023-06-11T04:17:00.961Z,100115.41
2023-06-11T04:18:04.114Z,100111.84
2023-06-11T04:19:07.217Z,100118.44
2023-06-11T04:20:10.535Z,100112.91
2023-06-11T04:21:13.525Z,100109.19
2023-06-11T04:22:16.546Z,100110.53
2023-06-11T04:23:19.523Z,100112.38
2023-06-11T04:24:22.522Z,100117.28
2023-06-11T04:25:26.007Z,100114.97
2023-06-11T04:26:30.036Z,100118.09
2023-06-11T04:27:34.958Z,100121.97
2023-06-11T04:28:38.765Z,100123.09
2023-06-11T04:29:41.763Z,100118.31
2023-06-11T04:30:44.816Z,100112.91
2023-06-11T04:31:48.751Z,100120.72
2023-06-11T04:32:56.262Z,100119.09
2023-06-11T04:34:04.301Z,100119.09
2023-06-11T04:35:08.037Z,100113.72
2023-06-11T04:36:11.268Z,100123.56
2023-06-11T04:37:17.235Z,100119.47
2023-06-11T04:38:20.225Z,100117.38
2023-06-11T04:39:23.506Z,100122.50
2023-06-11T04:40:26.583Z,100113.19
2023-06-11T04:41:30.737Z,100122.22
2023-06-11T04:42:35.887Z,100119.72
2023-06-11T04:43:39.049Z,100121.22
2023-06-11T04:44:42.024Z,100123.00
2023-06-11T04:45:45.074Z,100126.66
2023-06-11T04:46:49.091Z,100115.28
2023-06-11T04:47:52.390Z,100116.56
2023-06-11T04:48:59.628Z,100124.97
2023-06-11T04:50:06.320Z,100120.81
2023-06-11T04:51:13.330Z,100118.63
2023-06-11T04:52:17.111Z,100124.97
2023-06-11T04:53:24.207Z,100120.25
2023-06-11T04:54:28.471Z,100119.72
2023-06-11T04:55:33.508Z,100126.47
2023-06-11T04:56:36.557Z,100124.97
2023-06-11T04:57:40.124Z,100125.81
2023-06-11T04:58:43.099Z,100124.94
2023-06-11T04:59:46.644Z,100124.09
2023-06-11T05:00:49.849Z,100122.44
2023-06-11T05:01:55.002Z,100123.03
2023-06-11T05:02:58.314Z,100116.94
2023-06-11T05:04:01.320Z,100123.84
2023-06-11T05:05:06.569Z,100119.28
2023-06-11T05:06:09.825Z,100120.06
2023-06-11T05:07:13.338Z,100124.97
2023-06-11T05:08:17.045Z,100125.16
2023-06-11T05:09:20.112Z,100118.00
2023-06-11T05:10:23.087Z,100121.56
2023-06-11T05:11:26.069Z,100118.97
2023-06-11T05:12:29.070Z,100117.69
2023-06-11T05:13:32.061Z,100118.34
2023-06-11T05:14:35.100Z,100118.34
2023-06-11T05:15:38.082Z,100124.41
2023-06-11T05:16:41.156Z,100121.44
2023-06-11T05:17:44.198Z,100130.50
2023-06-11T05:18:47.186Z,100120.09
2023-06-11T05:19:50.165Z,100119.34
2023-06-11T05:20:53.897Z,100124.66
2023-06-11T05:21:56.904Z,100124.91
2023-06-11T05:23:00.146Z,100127.00
2023-06-11T05:24:09.235Z,100119.84
2023-06-11T05:25:16.251Z,100119.72
2023-06-11T05:26:20.311Z,100124.00
2023-06-11T05:27:24.887Z,100125.72
2023-06-11T05:28:27.945Z,100126.44
2023-06-11T05:29:31.285Z,100124.56
2023-06-11T05:30:40.345Z,100127.84
2023-06-11T05:31:43.849Z,100131.34
2023-06-11T05:32:47.159Z,100131.69
2023-06-11T05:33:50.195Z,100130.88
2023-06-11T05:34:53.184Z,100128.66
2023-06-11T05:35:56.171Z,100127.84
2023-06-11T05:36:59.152Z,100121.59
2023-06-11T05:38:04.900Z,100122.19
2023-06-11T05:39:07.887Z,100124.88
2023-06-11T05:40:12.343Z,100129.72
2023-06-11T05:41:16.082Z,100123.66
2023-06-11T05:42:19.057Z,100131.94
2023-06-11T05:43:22.053Z,100125.84
2023-06-11T05:44:25.050Z,100120.00
2023-06-11T05:45:28.104Z,100125.66
2023-06-11T05:46:31.153Z,100119.56
2023-06-11T05:47:35.670Z,100124.59
2023-06-11T05:48:38.797Z,100128.25
2023-06-11T05:49:41.823Z,100129.84
2023-06-11T05:50:44.856Z,100121.47
2023-06-11T05:51:47.842Z,100131.63
2023-06-11T05:52:50.821Z,100131.94
2023-06-11T05:53:53.834Z,100132.16
2023-06-11T05:54:56.809Z,100132.75
2023-06-11T05:56:04.712Z,100134.88
2023-06-11T05:57:21.939Z,100129.25
2023-06-11T05:58:24.916Z,100134.88
2023-06-11T05:59:27.893Z,100132.66
2023-06-11T06:00:30.993Z,100123.69
2023-06-11T06:01:34.442Z,100136.56
2023-06-11T06:02:37.608Z,100139.78
2023-06-11T06:03:40.935Z,100131.41
2023-06-11T06:04:47.604Z,100142.22
2023-06-11T06:05:50.613Z,100133.41
2023-06-11T06:06:53.582Z,100137.19
2023-06-11T06:07:56.888Z,100135.44
2023-06-11T06:09:00.386Z,100140.97
2023-06-11T06:10:03.977Z,100139.00
2023-06-11T06:11:06.970Z,100140.56
2023-06-11T06:12:10.316Z,100137.47
2023-06-11T06:13:13.292Z,100136.97
2023-06-11T06:14:16.473Z,100140.31
2023-06-11T06:15:19.471Z,100140.44
2023-06-11T06:16:23.518Z,100139.97
2023-06-11T06:17:27.652Z,100148.69
2023-06-11T06:18:31.000Z,100140.69
2023-06-11T06:19:33.992Z,100151.16
2023-06-11T06:20:36.976Z,100152.19
2023-06-11T06:21:39.963Z,100140.97
2023-06-11T06:22:42.970Z,100145.88
2023-06-11T06:23:45.968Z,100145.53
2023-06-11T06:24:48.968Z,100148.69
2023-06-11T06:25:51.952Z,100148.47
2023-06-11T06:26:57.795Z,100154.59
2023-06-11T06:28:01.012Z,100152.47
2023-06-11T06:29:04.215Z,100152.81
2023-06-11T06:30:07.883Z,100158.63
2023-06-11T06:31:13.638Z,100153.38
2023-06-11T06:32:16.678Z,100148.09
2023-06-11T06:33:19.730Z,100152.22
2023-06-11T06:34:22.796Z,100152.41
2023-06-11T06:35:25.822Z,100149.28
2023-06-11T06:36:28.826Z,100152.22
2023-06-11T06:37:31.872Z,100158.84
2023-06-11T06:38:36.392Z,100155.97
2023-06-11T06:39:39.365Z,100158.91
2023-06-11T06:40:42.348Z,100162.06
2023-06-11T06:41:45.432Z,100163.66
2023-06-11T06:42:48.433Z,100160.66
2023-06-11T06:43:53.677Z,100165.34
2023-06-11T06:44:57.050Z,100158.53
2023-06-11T06:46:00.085Z,100157.84
2023-06-11T06:47:03.103Z,100155.38
2023-06-11T06:48:06.709Z,100162.75
2023-06-11T06:49:09.740Z,100157.94
2023-06-11T06:50:13.019Z,100160.63
2023-06-11T06:51:17.795Z,100155.25
2023-06-11T06:52:20.781Z,100163.09
2023-06-11T06:53:23.753Z,100154.31
2023-06-11T06:54:26.738Z,100157.38
2023-06-11T06:55:29.717Z,100156.63
2023-06-11T06:56:32.707Z,100157.94
2023-06-11T06:57:36.250Z,100166.00
2023-06-11T06:58:39.340Z,100159.50
2023-06-11T06:59:42.328Z,100166.59
2023-06-11T07:00:46.325Z,100164.00
2023-06-11T07:01:49.387Z,100161.31
2023-06-11T07:02:52.481Z,100155.78
2023-06-11T07:03:55.490Z,100160.19
2023-06-11T07:04:58.552Z,100162.25
2023-06-11T07:06:01.987Z,100160.13
2023-06-11T07:07:05.186Z,100161.53
2023-06-11T07:08:13.241Z,100159.66
2023-06-11T07:09:16.258Z,100162.13
2023-06-11T07:10:19.276Z,100163.09
2023-06-11T07:11:23.308Z,100163.81
2023-06-11T07:12:26.354Z,100154.34
2023-06-11T07:13:29.325Z,100162.66
2023-06-11T07:14:32.320Z,100166.28
2023-06-11T07:15:35.303Z,100161.03
2023-06-11T07:16:39.685Z,100166.63
2023-06-11T07:17:42.738Z,100172.72
2023-06-11T07:18:45.946Z,100157.69
2023-06-11T07:19:49.007Z,100155.91
2023-06-11T07:20:52.159Z,100164.81
2023-06-11T07:21:55.142Z,100162.66
2023-06-11T07:23:00.462Z,100158.38
2023-06-11T07:24:06.163Z,100153.50
2023-06-11T07:25:09.566Z,100161.09
2023-06-11T07:26:15.256Z,100164.56
2023-06-11T07:27:18.283Z,100165.03
2023-06-11T07:28:21.519Z,100165.31
2023-06-11T07:29:26.785Z,100161.28
2023-06-11T07:30:30.477Z,100159.59
2023-06-11T07:31:33.473Z,100159.97
2023-06-11T07:32:37.912Z,100166.97
2023-06-11T07:33:42.846Z,100157.50
2023-06-11T07:34:45.881Z,100162.63
2023-06-11T07:35:50.611Z,100160.09
2023-06-11T07:36:53.607Z,100163.38
2023-06-11T07:37:56.954Z,100155.22
2023-06-11T07:38:59.929Z,100160.19
2023-06-11T07:40:02.930Z,100162.38
2023-06-11T07:41:05.895Z,100162.72
2023-06-11T07:42:09.011Z,100155.22
2023-06-11T07:43:12.004Z,100164.31
2023-06-11T07:44:15.303Z,100158.59
2023-06-11T07:45:20.491Z,100158.31
2023-06-11T07:46:25.893Z,100168.72
2023-06-11T07:47:28.950Z,100170.63
2023-06-11T07:48:32.160Z,100164.66
2023-06-11T07:49:35.149Z,100162.94
2023-06-11T07:50:38.851Z,100164.91
2023-06-11T07:51:43.930Z,100163.41
2023-06-11T07:52:46.916Z,100170.69
2023-06-11T07:53:51.005Z,100166.09
2023-06-11T07:54:54.001Z,100165.00
2023-06-11T07:55:58.413Z,100171.91
2023-06-11T07:57:01.599Z,100163.66
2023-06-11T07:58:04.619Z,100164.31
2023-06-11T07:59:08.176Z,100162.25
2023-06-11T08:00:14.432Z,100160.22
2023-06-11T08:01:17.814Z,100158.06
2023-06-11T08:02:21.117Z,100161.59
2023-06-11T08:03:24.299Z,100159.69
2023-06-11T08:04:27.425Z,100173.25
2023-06-11T08:05:31.354Z,100166.22
2023-06-11T08:06:34.454Z,100167.31
2023-06-11T08:07:37.440Z,100170.53
2023-06-11T08:08:40.725Z,100165.13
2023-06-11T08:09:43.729Z,100161.59
2023-06-11T08:10:47.068Z,100175.91
2023-06-11T08:11:50.097Z,100166.50
2023-06-11T08:12:53.121Z,100165.13
2023-06-11T08:13:56.096Z,100180.25
2023-06-11T08:14:59.072Z,100173.13
2023-06-11T08:16:02.551Z,100179.63
2023-06-11T08:17:06.106Z,100175.75
2023-06-11T08:18:09.237Z,100183.25
2023-06-11T08:19:12.694Z,100174.88
2023-06-11T08:20:17.540Z,100178.34
2023-06-11T08:21:20.752Z,100178.06
2023-06-11T08:22:23.757Z,100173.69
2023-06-11T08:23:26.770Z,100176.63
2023-06-11T08:24:31.862Z,100169.59
2023-06-11T08:25:35.023Z,100176.97
2023-06-11T08:26:37.997Z,100172.84
2023-06-11T08:27:41.134Z,100172.88
2023-06-11T08:28:44.293Z,100170.03
2023-06-11T08:29:47.293Z,100173.31
2023-06-11T08:30:50.288Z,100175.50
2023-06-11T08:31:53.472Z,100183.19
2023-06-11T08:32:57.575Z,100172.19
2023-06-11T08:34:00.928Z,100178.41
2023-06-11T08:35:04.125Z,100181.16
2023-06-11T08:36:07.614Z,100173.41
2023-06-11T08:37:10.623Z,100177.81
2023-06-11T08:38:13.610Z,100174.00
2023-06-11T08:39:17.213Z,100182.47
2023-06-11T08:40:22.258Z,100181.38
2023-06-11T08:41:25.317Z,100178.47
2023-06-11T08:42:28.317Z,100175.13
2023-06-11T08:43:31.402Z,100173.34
2023-06-11T08:44:35.657Z,100176.47
2023-06-11T08:45:38.965Z,100178.06
2023-06-11T08:46:46.191Z,100173.56
2023-06-11T08:47:56.138Z,100180.16
2023-06-11T08:49:00.522Z,100182.56
2023-06-11T08:50:04.797Z,100179.09
2023-06-11T08:51:11.685Z,100176.72
2023-06-11T08:52:16.047Z,100186.13
2023-06-11T08:53:20.752Z,100176.69
2023-06-11T08:54:24.421Z,100180.06
2023-06-11T08:55:27.619Z,100183.19
2023-06-11T08:56:31.033Z,100182.13
2023-06-11T08:57:34.003Z,100186.63
2023-06-11T08:58:37.461Z,100182.63
2023-06-11T08:59:40.443Z,100180.75
2023-06-11T09:00:45.931Z,100177.53
2023-06-11T09:01:54.306Z,100181.84
2023-06-11T09:02:57.510Z,100186.16
2023-06-11T09:04:01.377Z,100176.31
2023-06-11T09:05:07.656Z,100178.34
2023-06-11T09:06:11.592Z,100175.13
2023-06-11T09:07:26.987Z,100170.56
2023-06-11T09:08:30.434Z,100176.47
2023-06-11T09:09:33.436Z,100179.53
2023-06-11T09:10:50.438Z,100170.78
2023-06-11T09:11:53.905Z,100175.44
2023-06-11T09:12:57.985Z,100177.28
2023-06-11T09:14:02.291Z,100174.66
2023-06-11T09:15:06.838Z,100173.31
2023-06-11T09:16:09.857Z,100160.97
2023-06-11T09:17:17.156Z,100175.81
2023-06-11T09:18:24.968Z,100182.22
2023-06-11T09:19:27.940Z,100175.81
2023-06-11T09:20:32.866Z,100177.66
2023-06-11T09:21:37.795Z,100171.16
2023-06-11T09:22:43.823Z,100177.53
2023-06-11T09:23:48.050Z,100174.47
2023-06-11T09:24:52.239Z,100177.97
2023-06-11T09:25:55.253Z,100175.69
2023-06-11T09:27:00.134Z,100174.34
2023-06-11T09:28:07.419Z,100193.50
2023-06-11T09:29:10.404Z,100185.97
2023-06-11T09:30:20.066Z,100183.03
2023-06-11T09:31:23.266Z,100187.03
2023-06-11T09:32:34.098Z,100185.56
2023-06-11T09:33:38.473Z,100181.44
2023-06-11T09:34:41.737Z,100187.72
2023-06-11T09:35:47.473Z,100190.97
2023-06-11T09:36:50.547Z,100187.13
2023-06-11T09:37:54.136Z,100187.06
2023-06-11T09:38:57.167Z,100190.06
2023-06-11T09:40:00.670Z,100187.28
2023-06-11T09:41:09.496Z,100186.81
2023-06-11T09:42:25.625Z,100183.00
2023-06-11T09:43:28.764Z,100185.91
2023-06-11T09:44:34.587Z,100190.47
2023-06-11T09:45:38.656Z,100180.13
2023-06-11T09:46:41.638Z,100179.44
2023-06-11T09:47:47.305Z,100181.63
2023-06-11T09:48:50.413Z,100181.69
2023-06-11T09:49:54.512Z,100178.69
2023-06-11T09:50:57.514Z,100184.06
2023-06-11T09:52:01.560Z,100185.13
2023-06-11T09:53:05.920Z,100181.75
2023-06-11T09:54:10.152Z,100180.97
2023-06-11T09:55:15.005Z,100181.94
2023-06-11T09:56:20.022Z,100184.31
2023-06-11T09:57:23.558Z,100190.50
2023-06-11T09:58:28.563Z,100189.41
2023-06-11T09:59:35.317Z,100192.31
2023-06-11T10:00:38.314Z,100187.03
2023-06-11T10:01:48.559Z,100188.66
2023-06-11T10:02:51.998Z,100183.88
2023-06-11T10:03:55.142Z,100186.91
2023-06-11T10:04:58.571Z,100187.56
2023-06-11T10:06:17.550Z,100179.97
2023-06-11T10:07:24.985Z,100186.50
2023-06-11T10:08:34.374Z,100183.19
2023-06-11T10:09:39.442Z,100179.25
2023-06-11T10:10:46.268Z,100181.97
2023-06-11T10:11:49.852Z,100181.66
2023-06-11T10:12:54.403Z,100176.19
2023-06-11T10:14:02.256Z,100173.69
2023-06-11T10:15:08.932Z,100183.00
2023-06-11T10:16:12.240Z,100181.16
2023-06-11T10:17:16.512Z,100189.25
2023-06-11T10:18:19.914Z,100179.78
2023-06-11T10:19:23.847Z,100179.94
2023-06-11T10:20:33.004Z,100174.66
2023-06-11T10:21:45.671Z,100175.66
2023-06-11T10:22:48.764Z,100173.53
2023-06-11T10:23:54.524Z,100179.50
2023-06-11T10:25:01.573Z,100174.22
2023-06-11T10:26:04.905Z,100176.34
2023-06-11T10:27:14.234Z,100179.06
2023-06-11T10:28:17.256Z,100180.84
2023-06-11T10:29:27.114Z,100180.97
2023-06-11T10:30:30.113Z,100174.38
2023-06-11T10:31:43.294Z,100176.38
2023-06-11T10:32:50.957Z,100174.53
2023-06-11T10:34:05.412Z,100172.84
2023-06-11T10:35:09.491Z,100175.50
2023-06-11T10:36:28.335Z,100173.75
2023-06-11T10:37:43.649Z,100173.38
2023-06-11T10:38:46.633Z,100176.63
2023-06-11T10:39:52.862Z,100172.31
2023-06-11T10:41:04.941Z,100164.25
2023-06-11T10:42:08.274Z,100169.13
2023-06-11T10:43:18.927Z,100174.03
2023-06-11T10:44:25.187Z,100173.88
2023-06-11T10:45:37.417Z,100172.69
2023-06-11T10:46:54.037Z,100168.25
2023-06-11T10:48:01.864Z,100162.00
2023-06-11T10:49:15.975Z,100157.53
2023-06-11T10:50:31.776Z,100161.06
2023-06-11T10:51:40.926Z,100162.66
2023-06-11T10:52:56.382Z,100162.84
2023-06-11T10:54:00.542Z,100162.00
2023-06-11T10:55:10.563Z,100161.84
2023-06-11T10:56:14.677Z,100164.16
2023-06-11T10:57:17.725Z,100162.50
2023-06-11T10:58:24.606Z,100163.00
2023-06-11T10:59:27.687Z,100168.44
2023-06-11T11:00:34.439Z,100170.41
2023-06-11T11:01:38.450Z,100164.16
2023-06-11T11:02:41.754Z,100168.81
2023-06-11T11:03:45.201Z,100173.38
2023-06-11T11:04:52.837Z,100168.72
2023-06-11T11:05:57.124Z,100170.72
2023-06-11T11:07:09.836Z,100177.63
2023-06-11T11:08:15.941Z,100167.19
2023-06-11T11:09:24.672Z,100172.00
2023-06-11T11:10:29.028Z,100172.84
2023-06-11T11:11:32.085Z,100169.63
2023-06-11T11:12:43.595Z,100170.59
2023-06-11T11:13:47.401Z,100171.66
2023-06-11T11:14:52.183Z,100167.09
2023-06-11T11:15:55.327Z,100168.41
2023-06-11T11:17:02.436Z,100168.53
2023-06-11T11:18:05.869Z,100160.66
2023-06-11T11:19:08.907Z,100157.41
2023-06-11T11:20:15.974Z,100158.47
2023-06-11T11:21:20.201Z,100161.59
2023-06-11T11:22:23.181Z,100168.13
2023-06-11T11:23:26.220Z,100169.13
2023-06-11T11:24:29.225Z,100161.06
2023-06-11T11:25:33.594Z,100155.75
2023-06-11T11:26:47.185Z,100154.56
2023-06-11T11:27:50.224Z,100157.28
2023-06-11T11:28:53.279Z,100157.78
2023-06-11T11:30:00.781Z,100158.13
2023-06-11T11:31:06.653Z,100165.56
2023-06-11T11:32:09.833Z,100164.78
2023-06-11T11:33:13.011Z,100161.69
2023-06-11T11:34:16.263Z,100158.03
2023-06-11T11:35:21.210Z,100158.59
2023-06-11T11:36:24.241Z,100158.47
2023-06-11T11:37:31.564Z,100161.22
2023-06-11T11:38:37.094Z,100150.38
2023-06-11T11:39:40.079Z,100166.06
2023-06-11T11:40:43.087Z,100161.06
2023-06-11T11:41:49.527Z,100158.69
2023-06-11T11:42:58.239Z,100163.31
2023-06-11T11:44:01.423Z,100162.13
2023-06-11T11:45:04.908Z,100151.53
2023-06-11T11:46:24.994Z,100159.34
2023-06-11T11:47:28.665Z,100154.91
2023-06-11T11:48:33.733Z,100159.03
2023-06-11T11:49:37.248Z,100149.66
2023-06-11T11:50:41.631Z,100158.97
2023-06-11T11:51:53.731Z,100156.84
2023-06-11T11:53:05.221Z,100152.41
2023-06-11T11:54:08.900Z,100153.44
2023-06-11T11:55:11.880Z,100156.50
2023-06-11T11:56:14.850Z,100148.56
2023-06-11T11:57:22.021Z,100146.22
2023-06-11T11:58:24.994Z,100150.13
2023-06-11T11:59:29.353Z,100148.16
2023-06-11T12:00:33.105Z,100146.88
2023-06-11T12:01:38.435Z,100142.06
2023-06-11T12:02:44.481Z,100144.41
2023-06-11T12:04:06.495Z,100137.47
2023-06-11T12:05:14.541Z,100142.63
2023-06-11T12:06:26.351Z,100141.41
2023-06-11T12:07:29.459Z,100136.84
2023-06-11T12:08:34.168Z,100137.22
2023-06-11T12:09:39.328Z,100135.78
2023-06-11T12:10:42.317Z,100138.97
2023-06-11T12:12:00.124Z,100138.16
2023-06-11T12:13:08.271Z,100141.69
2023-06-11T12:14:11.403Z,100139.56
2023-06-11T12:15:14.680Z,100140.31
2023-06-11T12:16:17.869Z,100133.91
2023-06-11T12:17:20.986Z,100138.53
2023-06-11T12:18:24.007Z,100132.63